createdAt,value
2019-01-12T00:00:41.473Z,16.67
2019-01-12T00:03:10.541Z,17.60
2019-01-12T00:05:39.597Z,18.00
2019-01-12T00:08:08.625Z,17.93
2019-01-12T00:10:38.018Z,17.60
2019-01-12T00:13:07.163Z,18.33
2019-01-12T00:15:36.567Z,17.53
2019-01-12T00:18:05.561Z,16.97
2019-01-12T00:20:35.001Z,18.27
2019-01-12T00:23:04.373Z,18.77
2019-01-12T00:25:33.378Z,18.73
2019-01-12T00:28:02.819Z,19.93
2019-01-12T00:30:32.169Z,20.60
2019-01-12T00:33:01.755Z,20.10
2019-01-12T00:35:30.807Z,20.03
2019-01-12T00:37:59.815Z,18.33
2019-01-12T00:40:28.873Z,19.93
2019-01-12T00:42:57.954Z,20.27
2019-01-12T00:45:27.339Z,20.77
2019-01-12T00:47:56.424Z,19.53
2019-01-12T00:50:25.788Z,20.43
2019-01-12T00:52:54.853Z,20.77
2019-01-12T00:55:24.247Z,20.93
2019-01-12T00:57:53.668Z,21.30
2019-01-12T01:00:23.425Z,20.93
2019-01-12T01:02:52.483Z,20.50
2019-01-12T01:05:21.522Z,20.60
2019-01-12T01:07:50.546Z,17.77
2019-01-12T01:10:21.442Z,20.93
2019-01-12T01:12:50.474Z,19.23
2019-01-12T01:15:20.019Z,19.47
2019-01-12T01:17:49.077Z,20.03
2019-01-12T01:20:18.200Z,20.43
2019-01-12T01:22:47.263Z,20.20
2019-01-12T01:25:16.266Z,19.83
2019-01-12T01:27:45.281Z,20.10
2019-01-12T01:30:17.301Z,20.20
2019-01-12T01:32:46.608Z,20.20
2019-01-12T01:35:15.978Z,19.70
2019-01-12T01:37:45.356Z,20.57
2019-01-12T01:40:16.547Z,20.47
2019-01-12T01:42:45.594Z,19.73
2019-01-12T01:45:15.649Z,20.00
2019-01-12T01:47:44.637Z,20.10
2019-01-12T01:50:14.714Z,19.97
2019-01-12T01:52:43.747Z,19.27
2019-01-12T01:55:13.347Z,19.23
2019-01-12T01:57:42.382Z,19.20
2019-01-12T02:00:14.487Z,19.00
2019-01-12T02:02:43.556Z,18.50
2019-01-12T02:05:12.571Z,18.50
2019-01-12T02:07:41.629Z,17.90
2019-01-12T02:10:19.284Z,18.33
2019-01-12T02:12:48.667Z,17.83
2019-01-12T02:15:18.377Z,19.67
2019-01-12T02:17:48.006Z,18.57
2019-01-12T02:20:17.006Z,17.87
2019-01-12T02:22:46.332Z,18.20
2019-01-12T02:25:15.338Z,17.40
2019-01-12T02:27:44.414Z,19.43
2019-01-12T02:30:23.216Z,17.07
2019-01-12T02:32:52.614Z,17.80
2019-01-12T02:35:21.633Z,18.07
2019-01-12T02:37:50.997Z,18.37
2019-01-12T02:40:20.014Z,16.70
2019-01-12T02:42:49.074Z,17.47
2019-01-12T02:45:18.738Z,18.00
2019-01-12T02:47:48.051Z,17.20
2019-01-12T02:50:17.376Z,18.13
2019-01-12T02:52:46.402Z,17.77
2019-01-12T02:55:15.456Z,17.87
2019-01-12T02:57:44.477Z,18.23
2019-01-12T03:00:16.049Z,17.33
2019-01-12T03:02:45.364Z,17.23
2019-01-12T03:05:15.162Z,17.17
2019-01-12T03:07:44.337Z,18.33
2019-01-12T03:10:15.106Z,17.10
2019-01-12T03:12:44.428Z,18.10
2019-01-12T03:15:15.778Z,18.00
2019-01-12T03:17:45.395Z,18.33
2019-01-12T03:20:16.235Z,18.57
2019-01-12T03:22:45.652Z,17.63
2019-01-12T03:25:18.343Z,17.20
2019-01-12T03:27:45.479Z,17.63
2019-01-12T03:30:19.061Z,18.77
2019-01-12T03:32:48.124Z,18.30
2019-01-12T03:35:17.386Z,18.40
2019-01-12T03:37:47.193Z,17.77
2019-01-12T03:40:20.898Z,17.57
2019-01-12T03:42:50.045Z,17.90
2019-01-12T03:45:20.295Z,18.20
2019-01-12T03:47:49.860Z,17.73
2019-01-12T03:50:19.120Z,17.00
2019-01-12T03:52:48.358Z,18.17
2019-01-12T03:55:25.190Z,17.57
2019-01-12T03:57:48.947Z,17.40
2019-01-12T04:00:21.321Z,18.33
2019-01-12T04:02:50.379Z,17.50
2019-01-12T04:05:19.911Z,17.53
2019-01-12T04:07:49.268Z,17.17
2019-01-12T04:10:18.302Z,17.07
2019-01-12T04:12:47.769Z,18.00
2019-01-12T04:15:16.811Z,18.67
2019-01-12T04:17:45.881Z,18.67
2019-01-12T04:20:16.196Z,19.37
2019-01-12T04:22:45.250Z,18.97
2019-01-12T04:25:14.526Z,18.80
2019-01-12T04:27:43.570Z,18.60
2019-01-12T04:30:17.402Z,19.57
2019-01-12T04:32:47.239Z,19.73
2019-01-12T04:35:16.845Z,19.43
2019-01-12T04:37:46.308Z,18.63
2019-01-12T04:40:20.062Z,17.83
2019-01-12T04:42:49.140Z,19.83
2019-01-12T04:45:18.163Z,19.37
2019-01-12T04:47:47.472Z,20.37
2019-01-12T04:50:17.924Z,19.97
2019-01-12T04:52:47.325Z,18.87
2019-01-12T04:55:17.036Z,19.13
2019-01-12T04:57:46.089Z,19.30
2019-01-12T05:00:19.262Z,19.33
2019-01-12T05:02:48.589Z,19.57
2019-01-12T05:05:17.776Z,20.67
2019-01-12T05:07:47.168Z,19.87
2019-01-12T05:10:16.356Z,20.27
2019-01-12T05:12:45.678Z,19.57
2019-01-12T05:15:15.932Z,18.80
2019-01-12T05:17:44.962Z,19.37
2019-01-12T05:20:19.201Z,18.63
2019-01-12T05:22:48.560Z,18.70
2019-01-12T05:25:18.848Z,21.27
2019-01-12T05:27:47.890Z,19.57
2019-01-12T05:30:19.241Z,20.07
2019-01-12T05:32:48.256Z,20.67
2019-01-12T05:35:17.288Z,19.67
2019-01-12T05:37:46.662Z,21.03
2019-01-12T05:40:15.723Z,21.97
2019-01-12T05:42:44.804Z,21.40
2019-01-12T05:45:14.374Z,22.57
2019-01-12T05:47:43.415Z,22.20
2019-01-12T05:50:13.656Z,23.33
2019-01-12T05:52:42.992Z,22.40
2019-01-12T05:55:12.026Z,23.80
2019-01-12T05:57:41.438Z,21.20
2019-01-12T06:00:14.586Z,23.47
2019-01-12T06:02:43.598Z,24.17
2019-01-12T06:05:12.618Z,23.27
2019-01-12T06:07:41.669Z,24.23
2019-01-12T06:10:10.907Z,23.60
2019-01-12T06:12:39.940Z,23.63
2019-01-12T06:15:09.372Z,22.50
2019-01-12T06:17:38.423Z,23.37
2019-01-12T06:20:08.447Z,22.93
2019-01-12T06:22:37.456Z,22.77
2019-01-12T06:25:06.617Z,21.80
2019-01-12T06:27:36.022Z,23.50
2019-01-12T06:30:09.192Z,23.07
2019-01-12T06:32:38.247Z,22.20
2019-01-12T06:35:07.402Z,23.90
2019-01-12T06:37:36.432Z,23.53
2019-01-12T06:40:07.878Z,22.47
2019-01-12T06:42:36.937Z,21.90
2019-01-12T06:45:07.742Z,21.83
2019-01-12T06:47:36.778Z,21.03
2019-01-12T06:50:06.931Z,20.90
2019-01-12T06:52:36.350Z,21.07
2019-01-12T06:55:06.508Z,18.53
2019-01-12T06:57:35.532Z,20.10
2019-01-12T07:00:07.993Z,20.33
2019-01-12T07:02:37.429Z,18.33
2019-01-12T07:05:07.239Z,18.47
2019-01-12T07:07:36.256Z,18.83
2019-01-12T07:10:06.771Z,18.00
2019-01-12T07:12:35.790Z,16.67
2019-01-12T07:15:05.785Z,17.13
2019-01-12T07:17:34.818Z,17.00
2019-01-12T07:20:04.664Z,16.57
2019-01-12T07:22:33.671Z,17.03
2019-01-12T07:25:02.819Z,16.30
2019-01-12T07:27:31.932Z,16.93
2019-01-12T07:30:01.114Z,15.07
2019-01-12T07:32:30.141Z,14.83
2019-01-12T07:34:59.188Z,14.60
2019-01-12T07:37:28.219Z,15.20
2019-01-12T07:39:57.272Z,13.97
2019-01-12T07:42:26.802Z,13.47
2019-01-12T07:44:55.895Z,12.87
2019-01-12T07:47:25.262Z,12.00
2019-01-12T07:49:54.320Z,13.20
2019-01-12T07:52:23.633Z,12.23
2019-01-12T07:54:52.979Z,13.60
2019-01-12T07:57:22.008Z,15.30
2019-01-12T07:59:51.071Z,18.37
2019-01-12T08:02:20.120Z,14.47
2019-01-12T08:04:49.217Z,14.37
2019-01-12T08:07:18.258Z,11.47
2019-01-12T08:09:47.487Z,10.73
2019-01-12T08:12:16.510Z,10.73
2019-01-12T08:14:45.570Z,8.63
2019-01-12T08:17:14.575Z,9.97
2019-01-12T08:19:44.013Z,8.30
2019-01-12T08:22:13.052Z,8.70
2019-01-12T08:24:42.217Z,7.87
2019-01-12T08:27:11.549Z,7.43
2019-01-12T08:29:40.988Z,7.73
2019-01-12T08:32:10.412Z,6.63
2019-01-12T08:34:39.466Z,7.17
2019-01-12T08:37:08.537Z,8.03
2019-01-12T08:39:37.930Z,8.43
2019-01-12T08:42:07.014Z,7.60
2019-01-12T08:44:36.408Z,10.33
2019-01-12T08:47:05.871Z,7.20
2019-01-12T08:49:34.916Z,7.00
2019-01-12T08:52:03.951Z,9.80
2019-01-12T08:54:33.311Z,7.53
2019-01-12T08:57:02.338Z,10.47
2019-01-12T08:59:31.427Z,8.83
2019-01-12T09:02:00.579Z,11.47
2019-01-12T09:04:29.665Z,9.70
2019-01-12T09:06:58.733Z,6.80
2019-01-12T09:09:27.792Z,5.93
2019-01-12T09:11:56.860Z,10.40
2019-01-12T09:14:25.966Z,6.63
2019-01-12T09:16:56.028Z,6.70
2019-01-12T09:19:25.101Z,5.13
2019-01-12T09:21:54.195Z,5.40
2019-01-12T09:24:23.354Z,5.80
2019-01-12T09:26:52.363Z,4.93
2019-01-12T09:29:21.762Z,4.80
2019-01-12T09:31:51.171Z,4.77
2019-01-12T09:34:20.236Z,5.13
2019-01-12T09:36:49.691Z,5.03
2019-01-12T09:39:18.873Z,5.37
2019-01-12T09:41:47.901Z,4.63
2019-01-12T09:44:16.955Z,4.53
2019-01-12T09:46:46.463Z,4.67
2019-01-12T09:49:15.576Z,5.03
2019-01-12T09:51:44.648Z,4.70
2019-01-12T09:54:14.092Z,4.23
2019-01-12T09:56:43.446Z,4.80
2019-01-12T09:59:12.921Z,4.37
2019-01-12T10:01:42.059Z,4.67
2019-01-12T10:04:11.407Z,4.90
2019-01-12T10:06:40.772Z,4.60
2019-01-12T10:09:09.789Z,4.67
2019-01-12T10:11:38.859Z,4.70
2019-01-12T10:14:07.960Z,4.37
2019-01-12T10:16:37.388Z,4.50
2019-01-12T10:19:06.755Z,5.30
2019-01-12T10:21:35.952Z,4.53
2019-01-12T10:24:05.043Z,4.60
2019-01-12T10:26:34.509Z,4.60
2019-01-12T10:29:03.568Z,5.17
2019-01-12T10:31:33.373Z,4.33
2019-01-12T10:34:03.203Z,4.63
2019-01-12T10:36:32.615Z,4.53
2019-01-12T10:39:01.641Z,4.47
2019-01-12T10:41:31.127Z,5.30
2019-01-12T10:44:00.233Z,4.50
2019-01-12T10:46:29.283Z,4.50
2019-01-12T10:48:58.443Z,3.93
2019-01-12T10:51:27.550Z,4.43
2019-01-12T10:53:56.645Z,4.77
2019-01-12T10:56:25.764Z,4.37
2019-01-12T10:58:55.879Z,4.37
2019-01-12T11:01:25.085Z,4.47
2019-01-12T11:03:54.136Z,4.63
2019-01-12T11:06:23.317Z,3.93
2019-01-12T11:08:52.668Z,4.10
2019-01-12T11:11:22.062Z,4.60
2019-01-12T11:13:51.205Z,4.70
2019-01-12T11:16:20.410Z,4.50
2019-01-12T11:18:49.804Z,4.30
2019-01-12T11:21:18.963Z,4.40
2019-01-12T11:23:48.067Z,4.30
2019-01-12T11:26:17.462Z,4.10
2019-01-12T11:28:47.025Z,4.80
2019-01-12T11:31:19.798Z,4.20
2019-01-12T11:33:47.299Z,5.23
2019-01-12T11:36:16.456Z,7.63
2019-01-12T11:38:45.562Z,5.20
2019-01-12T11:41:14.744Z,4.50
2019-01-12T11:43:44.143Z,5.90
2019-01-12T11:46:13.471Z,4.57
2019-01-12T11:48:43.650Z,5.17
2019-01-12T11:51:14.281Z,5.77
2019-01-12T11:53:43.374Z,5.10
2019-01-12T11:56:12.833Z,5.40
2019-01-12T11:58:41.916Z,5.20
2019-01-12T12:01:10.989Z,5.70
2019-01-12T12:03:40.369Z,5.97
2019-01-12T12:06:10.123Z,6.80
2019-01-12T12:08:39.947Z,6.67
2019-01-12T12:11:09.334Z,5.23
2019-01-12T12:13:38.412Z,5.57
2019-01-12T12:16:07.615Z,5.20
2019-01-12T12:18:37.010Z,5.30
2019-01-12T12:21:06.457Z,5.33
2019-01-12T12:23:35.623Z,5.17
2019-01-12T12:26:04.827Z,5.40
2019-01-12T12:28:34.170Z,5.33
2019-01-12T12:31:03.329Z,6.17
2019-01-12T12:33:32.477Z,5.80
2019-01-12T12:36:01.875Z,5.77
2019-01-12T12:38:30.987Z,8.90
2019-01-12T12:41:00.391Z,5.73
2019-01-12T12:43:29.517Z,6.13
2019-01-12T12:45:58.734Z,5.37
2019-01-12T12:48:27.996Z,5.43
2019-01-12T12:50:57.428Z,5.17
2019-01-12T12:53:26.438Z,6.37
2019-01-12T12:55:55.973Z,5.43
2019-01-12T12:58:25.378Z,5.30
2019-01-12T13:00:54.861Z,4.87
2019-01-12T13:03:24.053Z,4.20
2019-01-12T13:05:53.372Z,4.50
2019-01-12T13:08:22.503Z,5.27
2019-01-12T13:10:51.592Z,9.73
2019-01-12T13:13:21.409Z,6.33
2019-01-12T13:15:50.487Z,5.20
2019-01-12T13:18:20.288Z,3.77
2019-01-12T13:20:49.446Z,4.03
2019-01-12T13:23:20.116Z,4.57
2019-01-12T13:25:49.869Z,4.83
2019-01-12T13:28:19.289Z,4.30
2019-01-12T13:30:48.876Z,4.23
2019-01-12T13:33:17.946Z,4.70
2019-01-12T13:35:48.675Z,4.40
2019-01-12T13:38:18.112Z,3.87
2019-01-12T13:40:47.223Z,4.67
2019-01-12T13:43:16.575Z,3.87
2019-01-12T13:45:46.050Z,3.87
2019-01-12T13:48:15.147Z,4.73
2019-01-12T13:50:44.505Z,4.30
2019-01-12T13:53:13.889Z,4.00
2019-01-12T13:55:42.927Z,4.10
2019-01-12T13:58:11.961Z,4.17
2019-01-12T14:00:41.658Z,4.00
2019-01-12T14:03:10.701Z,3.60
2019-01-12T14:05:39.789Z,3.80
2019-01-12T14:08:08.969Z,4.00
2019-01-12T14:10:38.450Z,4.07
2019-01-12T14:13:08.018Z,3.90
2019-01-12T14:15:37.226Z,3.73
2019-01-12T14:18:06.516Z,4.20
2019-01-12T14:20:37.763Z,4.30
2019-01-12T14:23:07.378Z,4.30
2019-01-12T14:25:36.908Z,4.10
2019-01-12T14:28:06.643Z,3.90
2019-01-12T14:30:35.719Z,4.27
2019-01-12T14:33:05.605Z,4.07
2019-01-12T14:35:35.023Z,4.40
2019-01-12T14:38:04.305Z,4.17
2019-01-12T14:40:33.668Z,4.60
2019-01-12T14:43:02.747Z,4.93
2019-01-12T14:45:33.728Z,4.80
2019-01-12T14:48:02.999Z,4.10
2019-01-12T14:50:32.481Z,4.30
2019-01-12T14:53:01.872Z,4.77
2019-01-12T14:55:31.537Z,4.20
2019-01-12T14:58:02.594Z,4.73
2019-01-12T15:00:31.349Z,4.53
2019-01-12T15:03:00.742Z,4.07
2019-01-12T15:05:33.992Z,4.67
2019-01-12T15:08:03.034Z,4.43
2019-01-12T15:10:33.430Z,4.70
2019-01-12T15:13:02.461Z,4.10
2019-01-12T15:15:31.892Z,4.33
2019-01-12T15:18:00.993Z,3.93
2019-01-12T15:20:30.879Z,4.20
2019-01-12T15:23:00.755Z,3.93
2019-01-12T15:25:30.907Z,4.40
2019-01-12T15:28:00.990Z,4.17
2019-01-12T15:30:31.830Z,4.13
2019-01-12T15:33:11.279Z,4.20
2019-01-12T15:35:42.187Z,4.73
2019-01-12T15:38:11.285Z,4.10
2019-01-12T15:40:41.994Z,4.23
2019-01-12T15:43:11.387Z,4.67
2019-01-12T15:45:43.873Z,4.23
2019-01-12T15:48:12.935Z,4.10
2019-01-12T15:50:41.987Z,4.47
2019-01-12T15:53:11.019Z,4.10
2019-01-12T15:55:40.541Z,4.80
2019-01-12T15:58:16.160Z,4.17
2019-01-12T16:00:43.525Z,4.53
2019-01-12T16:03:12.605Z,3.87
2019-01-12T16:05:42.002Z,4.20
2019-01-12T16:08:11.086Z,4.27
2019-01-12T16:10:40.518Z,4.30
2019-01-12T16:13:09.631Z,4.73
2019-01-12T16:15:41.025Z,4.47
2019-01-12T16:18:10.139Z,4.27
2019-01-12T16:20:43.503Z,4.50
2019-01-12T16:23:13.832Z,4.03
2019-01-12T16:25:43.985Z,4.67
2019-01-12T16:28:13.478Z,4.50
2019-01-12T16:30:42.959Z,4.67
2019-01-12T16:33:12.360Z,4.40
2019-01-12T16:35:45.265Z,4.30
2019-01-12T16:38:14.574Z,4.43
2019-01-12T16:40:43.907Z,4.60
2019-01-12T16:43:13.045Z,4.57
2019-01-12T16:45:42.084Z,5.10
2019-01-12T16:48:11.141Z,5.00
2019-01-12T16:50:41.220Z,5.10
2019-01-12T16:53:10.595Z,4.53
2019-01-12T16:55:39.988Z,4.77
2019-01-12T16:58:09.119Z,4.63
2019-01-12T17:00:38.547Z,5.13
2019-01-12T17:03:07.821Z,4.13
2019-01-12T17:05:36.973Z,5.17
2019-01-12T17:08:06.366Z,5.50
2019-01-12T17:10:35.926Z,4.60
2019-01-12T17:13:05.609Z,5.47
2019-01-12T17:15:35.516Z,5.47
2019-01-12T17:18:05.280Z,5.17
2019-01-12T17:20:34.276Z,5.23
2019-01-12T17:23:04.942Z,4.90
2019-01-12T17:25:34.457Z,5.17
2019-01-12T17:28:03.533Z,4.37
2019-01-12T17:30:32.579Z,5.40
2019-01-12T17:33:01.630Z,5.47
2019-01-12T17:35:30.689Z,5.27
2019-01-12T17:38:00.210Z,5.40
2019-01-12T17:40:29.370Z,5.90
2019-01-12T17:42:58.452Z,5.57
2019-01-12T17:45:27.993Z,6.13
2019-01-12T17:47:57.083Z,6.27
2019-01-12T17:50:27.668Z,6.20
2019-01-12T17:52:56.991Z,6.23
2019-01-12T17:55:27.493Z,5.57
2019-01-12T17:57:57.228Z,5.63
2019-01-12T18:00:33.478Z,5.50
2019-01-12T18:03:02.637Z,6.37
2019-01-12T18:05:32.208Z,5.83
2019-01-12T18:08:01.540Z,5.63
2019-01-12T18:10:30.616Z,5.70
2019-01-12T18:12:59.960Z,6.27
2019-01-12T18:15:29.036Z,6.10
2019-01-12T18:17:58.098Z,5.40
2019-01-12T18:20:27.136Z,5.40
2019-01-12T18:22:56.206Z,5.47
2019-01-12T18:25:25.287Z,5.53
2019-01-12T18:27:54.792Z,5.53
2019-01-12T18:30:24.158Z,5.20
2019-01-12T18:32:53.525Z,5.57
2019-01-12T18:35:22.832Z,5.47
2019-01-12T18:37:51.892Z,5.33
2019-01-12T18:40:20.932Z,5.43
2019-01-12T18:42:50.060Z,5.70
2019-01-12T18:45:19.470Z,6.03
2019-01-12T18:47:48.518Z,5.60
2019-01-12T18:50:19.833Z,5.43
2019-01-12T18:52:48.954Z,5.43
2019-01-12T18:55:18.628Z,5.10
2019-01-12T18:57:47.957Z,5.17
2019-01-12T19:00:22.068Z,5.13
2019-01-12T19:02:51.528Z,5.50
2019-01-12T19:05:20.633Z,5.23
2019-01-12T19:07:49.950Z,5.30
2019-01-12T19:10:20.224Z,5.07
2019-01-12T19:12:49.755Z,4.53
2019-01-12T19:15:29.992Z,4.87
2019-01-12T19:17:59.739Z,5.07
2019-01-12T19:20:28.866Z,4.83
2019-01-12T19:22:58.178Z,5.27
2019-01-12T19:25:27.215Z,5.60
2019-01-12T19:27:56.283Z,5.40
2019-01-12T19:30:26.363Z,5.40
2019-01-12T19:32:55.502Z,4.97
2019-01-12T19:35:24.535Z,4.60
2019-01-12T19:37:53.652Z,5.10
2019-01-12T19:40:24.811Z,4.60
2019-01-12T19:42:53.992Z,4.73
2019-01-12T19:45:23.386Z,4.67
2019-01-12T19:47:52.526Z,4.87
2019-01-12T19:50:25.919Z,6.37
2019-01-12T19:52:55.191Z,5.43
2019-01-12T19:55:24.237Z,5.40
2019-01-12T19:57:53.257Z,4.90
2019-01-12T20:00:24.986Z,4.70
2019-01-12T20:02:54.332Z,6.03
2019-01-12T20:05:23.660Z,5.80
2019-01-12T20:07:52.735Z,4.83
2019-01-12T20:10:22.017Z,7.57
2019-01-12T20:12:51.247Z,5.10
2019-01-12T20:15:22.641Z,5.60
2019-01-12T20:17:51.893Z,6.00
2019-01-12T20:20:21.276Z,4.63
2019-01-12T20:22:50.942Z,4.00
2019-01-12T20:25:31.574Z,4.27
2019-01-12T20:28:03.553Z,4.73
2019-01-12T20:30:59.380Z,4.60
2019-01-12T20:33:53.113Z,4.03
2019-01-12T20:36:52.832Z,4.03
2019-01-12T20:39:48.846Z,3.87
2019-01-12T20:42:53.637Z,3.93
2019-01-12T20:45:53.590Z,4.10
2019-01-12T20:48:48.138Z,4.20
2019-01-12T20:51:55.491Z,4.30
2019-01-12T20:55:14.728Z,4.20
2019-01-12T20:58:13.876Z,4.83
2019-01-12T21:01:07.633Z,4.50
2019-01-12T21:04:19.787Z,4.50
2019-01-12T21:07:33.602Z,3.87
2019-01-12T21:10:40.301Z,3.80
2019-01-12T21:13:43.915Z,4.30
2019-01-12T21:16:17.400Z,3.87
2019-01-12T21:18:46.556Z,4.17
2019-01-12T21:21:16.083Z,3.90
2019-01-12T21:23:45.143Z,3.90
2019-01-12T21:26:14.223Z,3.90
2019-01-12T21:28:43.716Z,4.20
2019-01-12T21:31:13.246Z,4.17
2019-01-12T21:33:42.325Z,3.77
2019-01-12T21:36:11.452Z,4.33
2019-01-12T21:38:40.574Z,3.87
2019-01-12T21:41:09.729Z,4.00
2019-01-12T21:43:39.882Z,3.77
2019-01-12T21:46:09.264Z,4.13
2019-01-12T21:48:38.436Z,3.73
2019-01-12T21:51:08.166Z,4.00
2019-01-12T21:53:37.190Z,4.17
2019-01-12T21:56:06.918Z,3.40
2019-01-12T21:58:36.310Z,3.83
2019-01-12T22:01:05.516Z,3.23
2019-01-12T22:03:34.895Z,3.57
2019-01-12T22:06:03.929Z,3.50
2019-01-12T22:08:33.364Z,3.33
2019-01-12T22:11:02.428Z,3.50
2019-01-12T22:13:31.544Z,3.40
2019-01-12T22:16:01.054Z,3.60
2019-01-12T22:18:30.476Z,3.20
2019-01-12T22:20:59.580Z,3.27
2019-01-12T22:23:29.866Z,3.30
2019-01-12T22:25:58.978Z,3.63
2019-01-12T22:28:28.034Z,3.07
2019-01-12T22:30:57.391Z,3.40
2019-01-12T22:33:26.822Z,3.37
2019-01-12T22:35:55.994Z,3.00
2019-01-12T22:38:25.132Z,3.23
2019-01-12T22:40:54.271Z,3.27
2019-01-12T22:43:24.811Z,4.90
2019-01-12T22:45:54.353Z,3.03
2019-01-12T22:48:23.393Z,3.53
2019-01-12T22:50:52.842Z,3.43
2019-01-12T22:53:21.864Z,3.30
2019-01-12T22:55:51.341Z,3.43
2019-01-12T22:58:20.566Z,3.40
2019-01-12T23:01:26.903Z,3.40
2019-01-12T23:03:59.554Z,3.63
2019-01-12T23:06:29.330Z,3.57
2019-01-12T23:08:58.956Z,3.97
2019-01-12T23:11:28.282Z,3.47
2019-01-12T23:13:58.340Z,3.97
2019-01-12T23:16:28.012Z,3.97
2019-01-12T23:18:57.395Z,3.53
2019-01-12T23:21:26.468Z,3.80
2019-01-12T23:23:55.476Z,3.77
2019-01-12T23:26:24.554Z,4.20
2019-01-12T23:28:53.631Z,4.40
2019-01-12T23:31:22.648Z,4.07
2019-01-12T23:33:51.750Z,4.33
2019-01-12T23:36:20.798Z,4.57
2019-01-12T23:38:49.850Z,4.60
2019-01-12T23:41:18.856Z,4.77
2019-01-12T23:43:47.893Z,4.50
2019-01-12T23:46:16.986Z,3.93
2019-01-12T23:48:46.001Z,4.30
2019-01-12T23:51:15.178Z,4.23
2019-01-12T23:53:44.252Z,4.53
2019-01-12T23:56:13.330Z,4.10
2019-01-12T23:58:42.389Z,4.60
